Time;durP1;ratioP1;P1;durP2;ratioP2;P2;SDS_P1;SDS_P2;PMS_P1;PMS_P2;Temp;Humidity;BMP_temperature;BMP_pressure;BME280_temperature;BME280_humidity;BME280_pressure;Samples;Min_cycle;Max_cycle;Signal;HPM_P1;HPM_P2
2021/09/13 04:17:13;;;;;;;;;34.33;32.33;;;;;;;;6489770;39;15613;-60
2021/09/13 04:23:44;;;;;;;;;34.50;31.50;;;;;;;;6491613;46;8985;-61
2021/09/13 04:30:16;;;;;;;;;35.33;34.33;;;;;;;;6494050;31;8971;-60
2021/09/13 04:36:37;;;;;;;;;26.33;25.00;;;;;;;;6491839;39;8972;-62
2021/09/13 04:42:59;;;;;;;;;33.67;32.00;;;;;;;;6492651;39;9020;-61
2021/09/13 04:49:12;;;;;;;;;33.33;32.00;;;;;;;;6491617;46;8972;-60
2021/09/13 04:55:34;;;;;;;;;32.33;32.33;;;;;;;;6492332;39;8962;-60
2021/09/13 05:01:37;;;;;;;;;34.33;31.67;;;;;;;;6491016;39;9077;-61
2021/09/13 05:07:41;;;;;;;;;28.33;28.33;;;;;;;;6491657;39;9049;-60
2021/09/13 05:13:44;;;;;;;;;32.00;28.67;;;;;;;;6491569;46;9021;-60
2021/09/13 05:19:46;;;;;;;;;27.00;27.00;;;;;;;;6490603;39;9004;-60
2021/09/13 05:25:51;;;;;;;;;34.50;32.00;;;;;;;;6491614;46;8949;-62
2021/09/13 05:31:53;;;;;;;;;34.00;30.00;;;;;;;;6491496;39;9985;-59
2021/09/13 05:37:56;;;;;;;;;31.67;28.67;;;;;;;;6491330;39;9001;-57
2021/09/13 05:44:00;;;;;;;;;28.00;25.50;;;;;;;;6493045;39;9772;-58
2021/09/13 05:50:02;;;;;;;;;29.33;28.00;;;;;;;;6492150;39;9148;-60
2021/09/13 05:56:05;;;;;;;;;29.33;28.33;;;;;;;;6488391;39;8954;-58
2021/09/13 06:02:10;;;;;;;;;21.00;19.33;;;;;;;;6488564;39;9679;-62
2021/09/13 06:08:22;;;;;;;;;30.33;29.33;;;;;;;;6485309;46;9033;-59
2021/09/13 06:14:25;;;;;;;;;29.33;26.67;;;;;;;;6485449;47;9066;-60
2021/09/13 06:20:33;;;;;;;;;25.00;24.33;;;;;;;;6485420;47;8982;-59
2021/09/13 06:26:36;;;;;;;;;22.33;21.00;;;;;;;;6487700;39;8960;-59
2021/09/13 06:32:38;;;;;;;;;26.67;20.33;;;;;;;;6486416;39;9093;-60
2021/09/13 06:38:45;;;;;;;;;26.67;26.67;;;;;;;;6486086;46;9000;-59
2021/09/13 06:44:48;;;;;;;;;25.67;22.67;;;;;;;;6485892;39;9006;-60
2021/09/13 06:50:51;;;;;;;;;21.00;20.00;;;;;;;;6486588;39;9706;-59
2021/09/13 06:56:55;;;;;;;;;34.00;26.67;;;;;;;;6486046;47;9016;-60
2021/09/13 07:02:59;;;;;;;;;30.67;25.00;;;;;;;;6484962;31;9034;-60
2021/09/13 07:09:02;;;;;;;;;22.67;21.33;;;;;;;;6486491;31;8987;-59
2021/09/13 07:15:05;;;;;;;;;25.67;24.33;;;;;;;;6486729;46;8996;-60
2021/09/13 07:21:07;;;;;;;;;21.67;21.00;;;;;;;;6487323;39;8977;-59
2021/09/13 07:27:10;;;;;;;;;21.00;21.00;;;;;;;;6488627;31;8992;-60
2021/09/13 07:33:13;;;;;;;;;31.00;24.25;;;;;;;;6487237;31;8994;-60
2021/09/13 07:39:15;;;;;;;;;16.00;16.00;;;;;;;;6489071;31;8952;-59
2021/09/13 07:45:17;;;;;;;;;25.67;25.00;;;;;;;;6488351;31;9036;-59
2021/09/13 07:51:20;;;;;;;;;21.50;21.50;;;;;;;;6487332;31;8980;-59
2021/09/13 07:57:22;;;;;;;;;25.50;23.00;;;;;;;;6488372;31;9088;-59
2021/09/13 08:03:25;;;;;;;;;27.25;25.25;;;;;;;;6486920;39;8960;-60
2021/09/13 08:09:41;;;;;;;;;23.00;22.00;;;;;;;;6485565;31;9124;-58
2021/09/13 08:15:43;;;;;;;;;23.00;20.50;;;;;;;;6485822;31;9661;-59
2021/09/13 08:21:45;;;;;;;;;21.50;20.75;;;;;;;;6486955;39;8992;-59
2021/09/13 08:27:48;;;;;;;;;19.00;19.00;;;;;;;;6486434;31;8930;-59
2021/09/13 08:33:51;;;;;;;;;25.00;22.25;;;;;;;;6484656;39;9052;-59
2021/09/13 08:39:53;;;;;;;;;26.00;21.75;;;;;;;;6486249;39;9139;-60
2021/09/13 08:46:11;;;;;;;;;23.75;21.50;;;;;;;;6485942;39;8988;-59
2021/09/13 08:52:14;;;;;;;;;18.75;18.75;;;;;;;;6485915;39;9032;-61
2021/09/13 08:58:22;;;;;;;;;22.00;21.50;;;;;;;;6486189;31;9070;-60
2021/09/13 09:04:24;;;;;;;;;23.25;20.75;;;;;;;;6485905;39;9038;-61
2021/09/13 09:10:27;;;;;;;;;20.75;20.75;;;;;;;;6486097;31;8957;-61
2021/09/13 09:16:29;;;;;;;;;20.25;18.25;;;;;;;;6486351;39;8997;-60
2021/09/13 09:22:34;;;;;;;;;22.00;22.00;;;;;;;;6484928;39;9154;-60
2021/09/13 09:28:36;;;;;;;;;23.25;19.50;;;;;;;;6483667;39;9098;-60
2021/09/13 09:34:39;;;;;;;;;19.25;19.25;;;;;;;;6479235;46;9028;-59
2021/09/13 09:40:41;;;;;;;;;23.00;22.00;;;;;;;;6484467;31;9090;-58
2021/09/13 09:46:44;;;;;;;;;23.50;23.50;;;;;;;;6484020;39;8999;-59
2021/09/13 09:52:46;;;;;;;;;26.00;23.67;;;;;;;;6484170;39;8997;-59
2021/09/13 09:59:04;;;;;;;;;23.75;20.00;;;;;;;;6485333;39;9005;-60
2021/09/13 10:05:07;;;;;;;;;24.25;19.75;;;;;;;;6484230;39;8969;-60
2021/09/13 10:11:09;;;;;;;;;25.75;24.75;;;;;;;;6484851;39;8987;-59
2021/09/13 10:17:13;;;;;;;;;27.00;21.75;;;;;;;;6484464;39;8993;-58
2021/09/13 10:23:24;;;;;;;;;21.00;19.75;;;;;;;;6483597;47;8995;-59
2021/09/13 10:29:28;;;;;;;;;20.00;19.00;;;;;;;;6484580;39;10119;-59
2021/09/13 10:35:54;;;;;;;;;26.25;26.00;;;;;;;;6484732;31;9041;-59
2021/09/13 10:41:57;;;;;;;;;23.25;22.00;;;;;;;;6485184;39;8987;-61
2021/09/13 10:48:16;;;;;;;;;20.25;18.25;;;;;;;;6486490;46;9063;-60
2021/09/13 10:54:18;;;;;;;;;24.25;22.50;;;;;;;;6485197;46;9108;-59
2021/09/13 11:00:39;;;;;;;;;24.25;24.25;;;;;;;;6486467;39;8997;-59
2021/09/13 11:06:44;;;;;;;;;28.25;26.75;;;;;;;;6486140;39;9008;-60
2021/09/13 11:12:51;;;;;;;;;30.00;24.75;;;;;;;;6486010;39;9035;-59
2021/09/13 11:18:55;;;;;;;;;21.25;20.75;;;;;;;;6487869;46;9036;-60
2021/09/13 11:25:06;;;;;;;;;22.50;21.00;;;;;;;;6487123;46;9136;-59
2021/09/13 11:31:10;;;;;;;;;20.75;17.25;;;;;;;;6486709;31;9023;-59
2021/09/13 11:37:19;;;;;;;;;28.75;26.25;;;;;;;;6488358;31;8999;-59
2021/09/13 11:43:57;;;;;;;;;24.75;24.75;;;;;;;;6488779;46;8952;-60
2021/09/13 11:50:02;;;;;;;;;25.00;23.50;;;;;;;;6487887;31;9046;-59
2021/09/13 11:56:11;;;;;;;;;23.25;23.00;;;;;;;;6487432;46;8993;-59
2021/09/13 12:02:16;;;;;;;;;20.50;20.25;;;;;;;;6488115;39;9038;-61
2021/09/13 12:08:22;;;;;;;;;20.75;19.75;;;;;;;;6487977;39;8966;-60
2021/09/13 12:14:25;;;;;;;;;23.00;21.25;;;;;;;;6488469;31;9004;-59
2021/09/13 12:20:34;;;;;;;;;16.50;16.50;;;;;;;;6487945;31;8964;-60
2021/09/13 12:26:37;;;;;;;;;19.50;17.00;;;;;;;;6488554;39;8956;-59
2021/09/13 12:32:47;;;;;;;;;16.75;14.25;;;;;;;;6488152;39;9628;-60
2021/09/13 12:38:52;;;;;;;;;17.00;16.75;;;;;;;;6489589;31;8964;-59
2021/09/13 12:45:03;;;;;;;;;17.00;14.75;;;;;;;;6488491;39;8994;-60
2021/09/13 12:51:11;;;;;;;;;22.25;19.50;;;;;;;;6488636;31;8976;-61
2021/09/13 12:57:33;;;;;;;;;22.25;22.25;;;;;;;;6488090;46;9042;-61
2021/09/13 13:03:36;;;;;;;;;18.50;18.25;;;;;;;;6487069;31;9006;-60
2021/09/13 13:09:40;;;;;;;;;14.00;11.00;;;;;;;;6487363;31;9049;-60
2021/09/13 13:15:44;;;;;;;;;22.50;19.25;;;;;;;;6487216;46;9008;-59
2021/09/13 13:21:54;;;;;;;;;18.25;18.00;;;;;;;;6485389;31;8983;-60
2021/09/13 13:27:57;;;;;;;;;23.75;20.75;;;;;;;;6487959;39;9034;-58
2021/09/13 13:33:59;;;;;;;;;20.50;18.75;;;;;;;;6486072;46;9008;-59
2021/09/13 13:40:02;;;;;;;;;17.75;16.75;;;;;;;;6486847;46;9005;-61
2021/09/13 13:46:05;;;;;;;;;22.50;20.50;;;;;;;;6489246;39;8985;-61
2021/09/13 13:52:07;;;;;;;;;21.75;19.75;;;;;;;;6490290;39;9080;-61
2021/09/13 13:58:09;;;;;;;;;20.50;20.00;;;;;;;;6490473;39;9502;-61
2021/09/13 14:04:11;;;;;;;;;17.25;15.75;;;;;;;;6488938;46;8980;-60
2021/09/13 14:10:14;;;;;;;;;18.33;18.33;;;;;;;;6128200;31;10002017;-61
2021/09/13 14:16:16;;;;;;;;;21.75;21.75;;;;;;;;6488529;39;9022;-62
2021/09/13 14:22:19;;;;;;;;;18.00;15.00;;;;;;;;6487955;47;9010;-61
2021/09/13 14:28:21;;;;;;;;;19.00;18.50;;;;;;;;6488773;39;8981;-60
2021/09/13 14:34:24;;;;;;;;;20.00;19.50;;;;;;;;6488748;31;9099;-61
2021/09/13 14:40:26;;;;;;;;;15.25;15.25;;;;;;;;6488933;39;8941;-60
2021/09/13 14:46:28;;;;;;;;;22.50;21.00;;;;;;;;6488414;47;9079;-61
2021/09/13 14:52:40;;;;;;;;;16.00;16.00;;;;;;;;6433331;39;10001917;-62
2021/09/13 14:58:42;;;;;;;;;20.75;18.50;;;;;;;;6308091;31;10001383;-61
2021/09/13 15:04:44;;;;;;;;;17.00;16.00;;;;;;;;6488705;39;8958;-60
2021/09/13 15:10:46;;;;;;;;;17.75;16.50;;;;;;;;6488514;39;8950;-62
2021/09/13 15:16:50;;;;;;;;;16.75;15.75;;;;;;;;6489426;39;9064;-60
2021/09/13 15:22:53;;;;;;;;;19.75;18.00;;;;;;;;6488349;39;9061;-62
2021/09/13 15:28:55;;;;;;;;;20.75;18.00;;;;;;;;6488351;46;8958;-61
2021/09/13 15:34:58;;;;;;;;;23.75;19.00;;;;;;;;6490318;39;9030;-62
2021/09/13 15:41:00;;;;;;;;;18.25;18.25;;;;;;;;6489404;46;8993;-61
2021/09/13 15:47:03;;;;;;;;;17.00;17.00;;;;;;;;6489783;46;8997;-60
2021/09/13 15:53:05;;;;;;;;;22.25;15.75;;;;;;;;6490605;31;8975;-61
2021/09/13 15:59:07;;;;;;;;;19.50;19.50;;;;;;;;6490775;39;9686;-62
2021/09/13 16:05:12;;;;;;;;;20.50;19.25;;;;;;;;6489738;39;8970;-60
2021/09/13 16:11:15;;;;;;;;;17.75;17.75;;;;;;;;6489934;31;8994;-61
2021/09/13 16:17:17;;;;;;;;;16.50;15.00;;;;;;;;6489841;39;8978;-60
2021/09/13 16:23:22;;;;;;;;;21.50;18.00;;;;;;;;6489771;39;9627;-61
2021/09/13 16:29:24;;;;;;;;;20.00;19.00;;;;;;;;6489609;46;8970;-61
2021/09/13 16:35:27;;;;;;;;;27.75;19.75;;;;;;;;6490147;39;9632;-61
2021/09/13 16:41:29;;;;;;;;;23.50;21.25;;;;;;;;6488998;46;9009;-60
2021/09/13 16:47:31;;;;;;;;;23.75;22.50;;;;;;;;6490676;39;8971;-61
2021/09/13 16:53:33;;;;;;;;;24.67;23.67;;;;;;;;6489590;39;9590;-60
2021/09/13 16:59:38;;;;;;;;;25.00;22.75;;;;;;;;6489739;39;9813;-60
2021/09/13 17:05:40;;;;;;;;;22.00;22.00;;;;;;;;6489657;46;9069;-60
2021/09/13 17:11:44;;;;;;;;;26.33;22.00;;;;;;;;6489161;39;8972;-59
2021/09/13 17:17:46;;;;;;;;;24.67;21.33;;;;;;;;6489007;46;9007;-60
2021/09/13 17:23:49;;;;;;;;;24.00;24.00;;;;;;;;6488887;46;9007;-61
2021/09/13 17:29:52;;;;;;;;;26.33;25.33;;;;;;;;6489937;39;8966;-61
2021/09/13 17:35:54;;;;;;;;;24.33;23.67;;;;;;;;6490269;31;9048;-60
2021/09/13 17:42:00;;;;;;;;;31.67;29.33;;;;;;;;6489767;39;9590;-60
2021/09/13 17:48:08;;;;;;;;;29.00;25.33;;;;;;;;6489985;31;9000;-62
2021/09/13 17:54:12;;;;;;;;;31.67;27.67;;;;;;;;6488712;46;9005;-60
2021/09/13 18:00:15;;;;;;;;;26.33;24.67;;;;;;;;6489385;39;9034;-62
2021/09/13 18:06:20;;;;;;;;;32.67;28.33;;;;;;;;6488633;39;8974;-61
2021/09/13 18:12:22;;;;;;;;;24.33;22.67;;;;;;;;6489141;39;8976;-61
2021/09/13 18:18:26;;;;;;;;;26.67;22.00;;;;;;;;6488286;39;8994;-60
2021/09/13 18:24:28;;;;;;;;;27.67;25.00;;;;;;;;6489268;47;9047;-61
2021/09/13 18:30:31;;;;;;;;;32.33;25.67;;;;;;;;6489235;39;8966;-59
2021/09/13 18:36:33;;;;;;;;;26.67;25.00;;;;;;;;6489517;31;8992;-61
2021/09/13 18:42:35;;;;;;;;;34.67;28.00;;;;;;;;6489291;31;9090;-60
2021/09/13 18:48:37;;;;;;;;;28.67;25.67;;;;;;;;6489628;39;9105;-62
2021/09/13 18:54:40;;;;;;;;;30.00;26.67;;;;;;;;6487956;46;9124;-61
2021/09/13 19:00:42;;;;;;;;;33.33;31.33;;;;;;;;6487744;39;9000;-61
2021/09/13 19:06:45;;;;;;;;;31.00;27.00;;;;;;;;6490064;46;8966;-61
2021/09/13 19:12:48;;;;;;;;;27.33;23.67;;;;;;;;6490576;39;9087;-61
2021/09/13 19:18:53;;;;;;;;;25.00;21.33;;;;;;;;6490493;31;8990;-60
2021/09/13 19:24:56;;;;;;;;;33.00;28.00;;;;;;;;6490143;39;9091;-61
2021/09/13 19:30:59;;;;;;;;;32.33;31.67;;;;;;;;6490211;39;8978;-60
2021/09/13 19:37:02;;;;;;;;;30.67;30.67;;;;;;;;6490903;39;8964;-60
2021/09/13 19:43:04;;;;;;;;;32.00;32.00;;;;;;;;6490250;46;8950;-60
2021/09/13 19:49:08;;;;;;;;;32.33;31.33;;;;;;;;6490578;39;8968;-60
2021/09/13 19:55:10;;;;;;;;;35.33;30.67;;;;;;;;6490431;39;9089;-59
2021/09/13 20:01:14;;;;;;;;;31.33;30.67;;;;;;;;6489736;46;9004;-61
2021/09/13 20:07:17;;;;;;;;;33.00;30.00;;;;;;;;6489919;46;9060;-60
2021/09/13 20:13:19;;;;;;;;;38.33;34.33;;;;;;;;6490226;47;8977;-60
2021/09/13 20:19:21;;;;;;;;;30.33;30.00;;;;;;;;1185240;31;10001030;-60
2021/09/13 20:25:23;;;;;;;;;34.67;33.00;;;;;;;;6490115;46;9110;-61
2021/09/13 20:31:26;;;;;;;;;30.33;25.00;;;;;;;;6490312;39;9062;-61
2021/09/13 20:37:28;;;;;;;;;33.33;31.67;;;;;;;;6489590;46;9247;-60
2021/09/13 20:43:30;;;;;;;;;34.33;30.67;;;;;;;;6488501;46;9077;-61
2021/09/13 20:49:32;;;;;;;;;36.00;35.33;;;;;;;;6490562;39;8955;-60
2021/09/13 20:55:34;;;;;;;;;33.33;29.67;;;;;;;;6489934;39;8994;-60
2021/09/13 21:01:37;;;;;;;;;38.00;33.00;;;;;;;;6490227;39;9158;-60
2021/09/13 21:07:40;;;;;;;;;35.50;33.00;;;;;;;;6489420;39;9068;-60
2021/09/13 21:13:44;;;;;;;;;27.33;27.33;;;;;;;;6489899;39;9203;-60
2021/09/13 21:19:46;;;;;;;;;32.33;31.33;;;;;;;;6489712;31;8982;-61
2021/09/13 21:25:49;;;;;;;;;32.00;30.67;;;;;;;;6489097;31;8975;-62
2021/09/13 21:31:54;;;;;;;;;42.00;37.33;;;;;;;;6489668;31;9076;-61
2021/09/13 21:37:56;;;;;;;;;34.33;31.67;;;;;;;;6490130;31;8962;-60
2021/09/13 21:43:59;;;;;;;;;33.67;32.33;;;;;;;;6489567;39;9054;-60
2021/09/13 21:50:01;;;;;;;;;32.33;31.00;;;;;;;;6489292;46;9038;-61
2021/09/13 21:56:03;;;;;;;;;32.00;29.00;;;;;;;;6488708;46;8998;-60
2021/09/13 22:02:05;;;;;;;;;36.67;34.00;;;;;;;;6489662;31;9002;-61
2021/09/13 22:08:08;;;;;;;;;32.33;29.00;;;;;;;;6489596;39;8958;-60
2021/09/13 22:14:10;;;;;;;;;35.67;30.33;;;;;;;;6490940;31;8979;-61
2021/09/13 22:20:13;;;;;;;;;41.00;35.00;;;;;;;;6488987;39;9218;-61
2021/09/13 22:26:22;;;;;;;;;31.67;29.00;;;;;;;;6488363;47;8967;-60
2021/09/13 22:32:24;;;;;;;;;33.00;31.67;;;;;;;;6488988;39;9057;-60
2021/09/13 22:38:26;;;;;;;;;31.33;30.00;;;;;;;;6489213;39;9086;-59
2021/09/13 22:44:29;;;;;;;;;32.33;31.67;;;;;;;;6490586;46;9021;-60
2021/09/13 22:50:31;;;;;;;;;37.00;29.33;;;;;;;;6490535;46;8951;-60
2021/09/13 22:56:33;;;;;;;;;32.67;27.67;;;;;;;;6490596;39;9039;-61
2021/09/13 23:02:35;;;;;;;;;36.67;33.33;;;;;;;;6490562;46;8955;-60
2021/09/13 23:08:39;;;;;;;;;28.33;28.33;;;;;;;;6490405;46;8959;-61
2021/09/13 23:14:43;;;;;;;;;30.00;30.00;;;;;;;;6491186;39;8999;-59
2021/09/13 23:20:46;;;;;;;;;28.33;28.33;;;;;;;;6490365;46;9163;-60
2021/09/13 23:26:49;;;;;;;;;34.33;32.33;;;;;;;;6489983;39;8966;-60
2021/09/13 23:32:51;;;;;;;;;30.50;29.00;;;;;;;;6490218;46;8962;-59
2021/09/13 23:38:54;;;;;;;;;33.67;32.67;;;;;;;;6490344;46;9221;-60
2021/09/13 23:44:56;;;;;;;;;30.00;29.33;;;;;;;;6490699;31;9983;-60
2021/09/13 23:50:59;;;;;;;;;31.33;26.33;;;;;;;;6489763;39;9037;-59
2021/09/13 23:57:02;;;;;;;;;36.00;32.00;;;;;;;;6490346;39;9132;-60
